sensor_id;sensor_type;location;lat;lon;timestamp;pressure;altitude;pressure_sealevel;temperature;humidity
43741;BME280;29352;48.708;9.290;2022-11-12T00:00:43;99436.47;;;-4.02;93.12
43741;BME280;29352;48.708;9.290;2022-11-12T00:03:09;99433.94;;;-4.03;93.22
43741;BME280;29352;48.708;9.290;2022-11-12T00:05:35;99435.94;;;-3.93;93.21
43741;BME280;29352;48.708;9.290;2022-11-12T00:08:02;99438.47;;;-3.91;93.11
43741;BME280;29352;48.708;9.290;2022-11-12T00:10:29;99433.06;;;-3.88;94.68
43741;BME280;29352;48.708;9.290;2022-11-12T00:12:55;99436.41;;;-3.70;95.37
43741;BME280;29352;48.708;9.290;2022-11-12T00:15:21;99433.41;;;-3.78;94.70
43741;BME280;29352;48.708;9.290;2022-11-12T00:17:46;99435.34;;;-3.82;91.08
43741;BME280;29352;48.708;9.290;2022-11-12T00:20:12;99438.84;;;-3.97;92.46
43741;BME280;29352;48.708;9.290;2022-11-12T00:22:37;99436.63;;;-3.89;92.97
43741;BME280;29352;48.708;9.290;2022-11-12T00:25:04;99432.47;;;-3.77;93.57
43741;BME280;29352;48.708;9.290;2022-11-12T00:27:33;99434.97;;;-3.46;92.76
43741;BME280;29352;48.708;9.290;2022-11-12T00:29:59;99434.06;;;-3.75;93.39
43741;BME280;29352;48.708;9.290;2022-11-12T00:32:25;99438.31;;;-3.58;94.13
43741;BME280;29352;48.708;9.290;2022-11-12T00:34:50;99434.50;;;-3.52;94.06
43741;BME280;29352;48.708;9.290;2022-11-12T00:37:16;99437.22;;;-3.70;94.68
43741;BME280;29352;48.708;9.290;2022-11-12T00:39:43;99440.75;;;-4.01;90.25
43741;BME280;29352;48.708;9.290;2022-11-12T00:42:09;99427.63;;;-3.99;89.51
43741;BME280;29352;48.708;9.290;2022-11-12T00:44:34;99427.28;;;-4.25;90.50
43741;BME280;29352;48.708;9.290;2022-11-12T00:47:00;99432.97;;;-4.50;91.03
43741;BME280;29352;48.708;9.290;2022-11-12T00:49:25;99428.13;;;-4.56;92.32
43741;BME280;29352;48.708;9.290;2022-11-12T00:51:50;99424.41;;;-4.68;92.73
43741;BME280;29352;48.708;9.290;2022-11-12T00:54:16;99435.50;;;-4.64;93.38
43741;BME280;29352;48.708;9.290;2022-11-12T00:56:42;99441.72;;;-5.00;93.79
43741;BME280;29352;48.708;9.290;2022-11-12T00:59:07;99431.69;;;-4.75;94.07
43741;BME280;29352;48.708;9.290;2022-11-12T01:01:33;99433.59;;;-4.94;92.84
43741;BME280;29352;48.708;9.290;2022-11-12T01:03:59;99443.91;;;-5.08;93.06
43741;BME280;29352;48.708;9.290;2022-11-12T01:06:25;99438.34;;;-5.02;92.98
43741;BME280;29352;48.708;9.290;2022-11-12T01:08:51;99443.88;;;-5.26;93.58
43741;BME280;29352;48.708;9.290;2022-11-12T01:11:22;99435.44;;;-4.96;92.74
43741;BME280;29352;48.708;9.290;2022-11-12T01:14:00;99432.44;;;-4.88;92.11
43741;BME280;29352;48.708;9.290;2022-11-12T01:16:33;99437.69;;;-4.72;91.84
43741;BME280;29352;48.708;9.290;2022-11-12T01:19:02;99429.44;;;-4.98;92.65
43741;BME280;29352;48.708;9.290;2022-11-12T01:21:31;99422.78;;;-4.86;92.60
43741;BME280;29352;48.708;9.290;2022-11-12T01:23:59;99423.13;;;-4.77;92.04
43741;BME280;29352;48.708;9.290;2022-11-12T01:26:26;99429.94;;;-5.07;92.88
43741;BME280;29352;48.708;9.290;2022-11-12T01:28:55;99427.34;;;-5.07;92.78
43741;BME280;29352;48.708;9.290;2022-11-12T01:31:29;99419.13;;;-5.00;92.20
43741;BME280;29352;48.708;9.290;2022-11-12T01:34:06;99420.06;;;-5.01;91.32
43741;BME280;29352;48.708;9.290;2022-11-12T01:36:36;99419.03;;;-4.98;91.20
43741;BME280;29352;48.708;9.290;2022-11-12T01:39:04;99414.81;;;-4.67;91.17
43741;BME280;29352;48.708;9.290;2022-11-12T01:41:34;99415.56;;;-5.14;91.56
43741;BME280;29352;48.708;9.290;2022-11-12T01:44:22;99415.72;;;-5.17;92.60
43741;BME280;29352;48.708;9.290;2022-11-12T01:47:09;99402.56;;;-4.99;92.04
43741;BME280;29352;48.708;9.290;2022-11-12T01:50:38;99407.09;;;-5.02;92.13
43741;BME280;29352;48.708;9.290;2022-11-12T01:53:11;99389.78;;;-4.70;91.63
43741;BME280;29352;48.708;9.290;2022-11-12T01:55:38;99397.44;;;-4.35;91.17
43741;BME280;29352;48.708;9.290;2022-11-12T01:58:10;99400.34;;;-4.25;88.92
43741;BME280;29352;48.708;9.290;2022-11-12T02:00:40;99399.69;;;-4.77;91.71
43741;BME280;29352;48.708;9.290;2022-11-12T02:03:16;99394.66;;;-4.48;91.48
43741;BME280;29352;48.708;9.290;2022-11-12T02:05:48;99388.19;;;-4.72;92.22
43741;BME280;29352;48.708;9.290;2022-11-12T02:08:21;99386.84;;;-4.48;91.49
43741;BME280;29352;48.708;9.290;2022-11-12T02:10:49;99386.31;;;-4.70;91.66
43741;BME280;29352;48.708;9.290;2022-11-12T02:13:16;99388.94;;;-4.55;92.53
43741;BME280;29352;48.708;9.290;2022-11-12T02:16:03;99389.00;;;-4.40;91.20
43741;BME280;29352;48.708;9.290;2022-11-12T02:18:30;99391.28;;;-4.66;92.19
43741;BME280;29352;48.708;9.290;2022-11-12T02:20:58;99381.28;;;-4.58;91.98
43741;BME280;29352;48.708;9.290;2022-11-12T02:23:28;99380.25;;;-4.23;92.55
43741;BME280;29352;48.708;9.290;2022-11-12T02:25:59;99378.06;;;-3.99;90.63
43741;BME280;29352;48.708;9.290;2022-11-12T02:28:27;99374.63;;;-4.00;91.61
43741;BME280;29352;48.708;9.290;2022-11-12T02:30:56;99376.06;;;-4.58;91.65
43741;BME280;29352;48.708;9.290;2022-11-12T02:33:21;99387.63;;;-4.95;94.81
43741;BME280;29352;48.708;9.290;2022-11-12T02:35:47;99375.53;;;-4.96;95.55
43741;BME280;29352;48.708;9.290;2022-11-12T02:38:12;99369.06;;;-4.89;94.73
43741;BME280;29352;48.708;9.290;2022-11-12T02:40:38;99366.81;;;-4.79;94.08
43741;BME280;29352;48.708;9.290;2022-11-12T02:43:03;99374.47;;;-4.76;93.44
43741;BME280;29352;48.708;9.290;2022-11-12T02:45:29;99369.69;;;-4.84;93.68
43741;BME280;29352;48.708;9.290;2022-11-12T02:47:56;99372.72;;;-4.44;92.35
43741;BME280;29352;48.708;9.290;2022-11-12T02:50:23;99377.94;;;-4.60;92.98
43741;BME280;29352;48.708;9.290;2022-11-12T02:52:48;99377.16;;;-4.62;93.04
43741;BME280;29352;48.708;9.290;2022-11-12T02:55:13;99381.16;;;-4.09;92.31
43741;BME280;29352;48.708;9.290;2022-11-12T02:57:39;99386.97;;;-4.67;91.71
43741;BME280;29352;48.708;9.290;2022-11-12T03:00:08;99383.72;;;-4.86;93.25
43741;BME280;29352;48.708;9.290;2022-11-12T03:02:35;99374.38;;;-4.75;93.95
43741;BME280;29352;48.708;9.290;2022-11-12T03:05:11;99384.03;;;-4.13;93.59
43741;BME280;29352;48.708;9.290;2022-11-12T03:07:37;99379.06;;;-4.02;93.09
43741;BME280;29352;48.708;9.290;2022-11-12T03:10:04;99378.81;;;-3.67;90.69
43741;BME280;29352;48.708;9.290;2022-11-12T03:12:31;99384.06;;;-4.45;92.63
43741;BME280;29352;48.708;9.290;2022-11-12T03:14:56;99381.19;;;-4.72;94.54
43741;BME280;29352;48.708;9.290;2022-11-12T03:17:22;99380.28;;;-4.55;94.73
43741;BME280;29352;48.708;9.290;2022-11-12T03:19:47;99380.34;;;-4.57;95.03
43741;BME280;29352;48.708;9.290;2022-11-12T03:22:12;99374.91;;;-4.52;95.04
43741;BME280;29352;48.708;9.290;2022-11-12T03:24:38;99376.75;;;-4.54;94.86
43741;BME280;29352;48.708;9.290;2022-11-12T03:27:03;99372.22;;;-4.66;95.16
43741;BME280;29352;48.708;9.290;2022-11-12T03:29:29;99379.09;;;-4.65;95.18
43741;BME280;29352;48.708;9.290;2022-11-12T03:31:54;99374.72;;;-4.65;95.28
43741;BME280;29352;48.708;9.290;2022-11-12T03:34:20;99371.59;;;-4.40;95.16
43741;BME280;29352;48.708;9.290;2022-11-12T03:36:45;99365.81;;;-4.45;95.95
43741;BME280;29352;48.708;9.290;2022-11-12T03:39:10;99375.06;;;-4.55;96.25
43741;BME280;29352;48.708;9.290;2022-11-12T03:41:36;99374.03;;;-4.84;96.70
43741;BME280;29352;48.708;9.290;2022-11-12T03:44:01;99367.50;;;-4.44;96.09
43741;BME280;29352;48.708;9.290;2022-11-12T03:46:26;99368.00;;;-4.21;96.17
43741;BME280;29352;48.708;9.290;2022-11-12T03:48:52;99378.44;;;-4.21;95.65
43741;BME280;29352;48.708;9.290;2022-11-12T03:51:17;99379.44;;;-4.24;95.55
43741;BME280;29352;48.708;9.290;2022-11-12T03:53:45;99389.25;;;-4.29;96.35
43741;BME280;29352;48.708;9.290;2022-11-12T03:56:10;99384.59;;;-4.08;96.12
43741;BME280;29352;48.708;9.290;2022-11-12T03:58:36;99380.06;;;-3.89;95.77
43741;BME280;29352;48.708;9.290;2022-11-12T04:01:01;99381.88;;;-3.75;95.08
43741;BME280;29352;48.708;9.290;2022-11-12T04:03:27;99381.84;;;-3.59;94.77
43741;BME280;29352;48.708;9.290;2022-11-12T04:05:52;99379.44;;;-3.34;93.31
43741;BME280;29352;48.708;9.290;2022-11-12T04:08:36;99381.41;;;-3.37;93.76
43741;BME280;29352;48.708;9.290;2022-11-12T04:11:10;99386.31;;;-3.47;93.57
43741;BME280;29352;48.708;9.290;2022-11-12T04:13:39;99386.19;;;-3.60;94.40
43741;BME280;29352;48.708;9.290;2022-11-12T04:18:54;99378.84;;;-3.39;93.84
43741;BME280;29352;48.708;9.290;2022-11-12T04:22:05;99374.56;;;-3.40;95.19
43741;BME280;29352;48.708;9.290;2022-11-12T04:24:34;99377.59;;;-3.03;93.97
43741;BME280;29352;48.708;9.290;2022-11-12T04:27:28;99367.81;;;-3.14;93.26
43741;BME280;29352;48.708;9.290;2022-11-12T04:29:56;99367.59;;;-3.39;94.00
43741;BME280;29352;48.708;9.290;2022-11-12T04:32:52;99367.31;;;-3.35;94.64
43741;BME280;29352;48.708;9.290;2022-11-12T04:35:22;99359.31;;;-3.31;94.95
43741;BME280;29352;48.708;9.290;2022-11-12T04:37:50;99357.25;;;-3.41;94.75
43741;BME280;29352;48.708;9.290;2022-11-12T04:40:16;99360.22;;;-3.33;95.33
43741;BME280;29352;48.708;9.290;2022-11-12T04:43:02;99358.72;;;-3.22;94.91
43741;BME280;29352;48.708;9.290;2022-11-12T04:45:50;99367.41;;;-3.81;95.92
43741;BME280;29352;48.708;9.290;2022-11-12T04:48:18;99368.13;;;-3.93;96.25
43741;BME280;29352;48.708;9.290;2022-11-12T04:51:08;99363.25;;;-3.69;96.16
43741;BME280;29352;48.708;9.290;2022-11-12T04:53:52;99361.47;;;-3.98;96.23
43741;BME280;29352;48.708;9.290;2022-11-12T04:56:17;99370.81;;;-4.10;97.45
43741;BME280;29352;48.708;9.290;2022-11-12T04:58:43;99373.06;;;-3.58;95.91
43741;BME280;29352;48.708;9.290;2022-11-12T05:01:08;99368.81;;;-3.45;94.60
43741;BME280;29352;48.708;9.290;2022-11-12T05:03:34;99375.03;;;-3.47;94.63
43741;BME280;29352;48.708;9.290;2022-11-12T05:06:00;99368.75;;;-3.00;93.58
43741;BME280;29352;48.708;9.290;2022-11-12T05:08:27;99366.41;;;-2.49;91.63
43741;BME280;29352;48.708;9.290;2022-11-12T05:10:52;99361.72;;;-2.86;91.60
43741;BME280;29352;48.708;9.290;2022-11-12T05:13:17;99368.16;;;-2.91;93.29
43741;BME280;29352;48.708;9.290;2022-11-12T05:15:43;99370.22;;;-2.82;93.31
43741;BME280;29352;48.708;9.290;2022-11-12T05:18:08;99362.94;;;-2.50;90.88
43741;BME280;29352;48.708;9.290;2022-11-12T05:20:34;99365.84;;;-3.24;95.09
43741;BME280;29352;48.708;9.290;2022-11-12T05:23:00;99366.31;;;-2.48;91.50
43741;BME280;29352;48.708;9.290;2022-11-12T05:25:25;99369.47;;;-3.27;93.52
43741;BME280;29352;48.708;9.290;2022-11-12T05:27:51;99374.03;;;-3.30;94.50
43741;BME280;29352;48.708;9.290;2022-11-12T05:30:16;99372.34;;;-4.22;98.95
43741;BME280;29352;48.708;9.290;2022-11-12T05:32:42;99365.78;;;-4.13;99.55
43741;BME280;29352;48.708;9.290;2022-11-12T05:35:07;99371.19;;;-3.56;97.78
43741;BME280;29352;48.708;9.290;2022-11-12T05:37:33;99367.28;;;-3.93;98.90
43741;BME280;29352;48.708;9.290;2022-11-12T05:39:58;99371.06;;;-3.99;98.99
43741;BME280;29352;48.708;9.290;2022-11-12T05:42:24;99373.69;;;-3.99;99.23
43741;BME280;29352;48.708;9.290;2022-11-12T05:44:49;99373.03;;;-3.72;98.06
43741;BME280;29352;48.708;9.290;2022-11-12T05:47:14;99380.94;;;-4.04;97.87
43741;BME280;29352;48.708;9.290;2022-11-12T05:49:40;99373.78;;;-4.16;99.97
43741;BME280;29352;48.708;9.290;2022-11-12T05:52:06;99379.38;;;-3.76;98.78
43741;BME280;29352;48.708;9.290;2022-11-12T05:54:31;99387.44;;;-3.37;98.48
43741;BME280;29352;48.708;9.290;2022-11-12T05:56:57;99382.06;;;-3.19;95.23
43741;BME280;29352;48.708;9.290;2022-11-12T05:59:22;99392.41;;;-3.76;96.47
43741;BME280;29352;48.708;9.290;2022-11-12T06:01:48;99387.88;;;-3.89;96.09
43741;BME280;29352;48.708;9.290;2022-11-12T06:04:15;99391.38;;;-3.15;96.47
43741;BME280;29352;48.708;9.290;2022-11-12T06:06:41;99395.59;;;-3.71;96.84
43741;BME280;29352;48.708;9.290;2022-11-12T06:09:08;99390.38;;;-3.71;97.41
43741;BME280;29352;48.708;9.290;2022-11-12T06:11:35;99403.94;;;-3.81;97.47
43741;BME280;29352;48.708;9.290;2022-11-12T06:14:02;99403.75;;;-3.77;97.55
43741;BME280;29352;48.708;9.290;2022-11-12T06:16:29;99402.25;;;-3.82;98.90
43741;BME280;29352;48.708;9.290;2022-11-12T06:18:55;99400.25;;;-4.08;98.96
43741;BME280;29352;48.708;9.290;2022-11-12T06:21:21;99401.97;;;-4.07;99.16
43741;BME280;29352;48.708;9.290;2022-11-12T06:23:55;99391.38;;;-4.04;98.91
43741;BME280;29352;48.708;9.290;2022-11-12T06:26:24;99395.97;;;-4.09;99.29
43741;BME280;29352;48.708;9.290;2022-11-12T06:28:52;99404.06;;;-3.98;99.05
43741;BME280;29352;48.708;9.290;2022-11-12T06:31:18;99407.16;;;-3.91;99.19
43741;BME280;29352;48.708;9.290;2022-11-12T06:33:45;99405.31;;;-3.59;95.97
43741;BME280;29352;48.708;9.290;2022-11-12T06:36:13;99398.13;;;-4.32;99.66
43741;BME280;29352;48.708;9.290;2022-11-12T06:38:41;99402.28;;;-4.29;99.98
43741;BME280;29352;48.708;9.290;2022-11-12T06:41:09;99400.28;;;-3.92;99.16
43741;BME280;29352;48.708;9.290;2022-11-12T06:43:36;99393.38;;;-3.93;99.04
43741;BME280;29352;48.708;9.290;2022-11-12T06:46:06;99401.94;;;-3.91;98.75
43741;BME280;29352;48.708;9.290;2022-11-12T06:48:35;99402.31;;;-3.67;97.83
43741;BME280;29352;48.708;9.290;2022-11-12T06:51:05;99402.56;;;-3.72;98.14
43741;BME280;29352;48.708;9.290;2022-11-12T06:53:32;99394.03;;;-3.90;98.45
43741;BME280;29352;48.708;9.290;2022-11-12T06:56:02;99389.53;;;-3.13;96.52
43741;BME280;29352;48.708;9.290;2022-11-12T06:58:29;99396.72;;;-3.61;95.18
43741;BME280;29352;48.708;9.290;2022-11-12T07:00:54;99406.78;;;-3.69;97.33
43741;BME280;29352;48.708;9.290;2022-11-12T07:03:20;99403.50;;;-3.28;95.30
43741;BME280;29352;48.708;9.290;2022-11-12T07:05:45;99391.66;;;-3.34;95.88
43741;BME280;29352;48.708;9.290;2022-11-12T07:08:11;99391.47;;;-3.45;96.75
43741;BME280;29352;48.708;9.290;2022-11-12T07:10:36;99390.63;;;-3.76;98.67
43741;BME280;29352;48.708;9.290;2022-11-12T07:13:02;99398.28;;;-4.03;98.97
43741;BME280;29352;48.708;9.290;2022-11-12T07:15:28;99399.13;;;-3.72;99.06
43741;BME280;29352;48.708;9.290;2022-11-12T07:17:53;99402.97;;;-3.94;99.54
43741;BME280;29352;48.708;9.290;2022-11-12T07:20:19;99405.47;;;-3.76;99.73
43741;BME280;29352;48.708;9.290;2022-11-12T07:22:44;99405.94;;;-4.00;100.00
43741;BME280;29352;48.708;9.290;2022-11-12T07:25:10;99399.63;;;-3.07;99.05
43741;BME280;29352;48.708;9.290;2022-11-12T07:27:35;99391.19;;;-3.12;97.87
43741;BME280;29352;48.708;9.290;2022-11-12T07:30:00;99397.06;;;-3.23;98.04
43741;BME280;29352;48.708;9.290;2022-11-12T07:32:26;99385.72;;;-2.93;96.51
43741;BME280;29352;48.708;9.290;2022-11-12T07:34:51;99395.75;;;-2.87;96.21
43741;BME280;29352;48.708;9.290;2022-11-12T07:37:17;99390.91;;;-2.65;94.22
43741;BME280;29352;48.708;9.290;2022-11-12T07:39:42;99385.97;;;-2.69;95.20
43741;BME280;29352;48.708;9.290;2022-11-12T07:42:07;99393.81;;;-2.69;95.08
43741;BME280;29352;48.708;9.290;2022-11-12T07:44:33;99389.88;;;-2.91;93.26
43741;BME280;29352;48.708;9.290;2022-11-12T07:46:58;99400.69;;;-3.25;95.94
43741;BME280;29352;48.708;9.290;2022-11-12T07:49:24;99402.34;;;-3.53;97.33
43741;BME280;29352;48.708;9.290;2022-11-12T07:51:49;99399.22;;;-3.29;98.41
43741;BME280;29352;48.708;9.290;2022-11-12T07:54:15;99400.06;;;-3.15;97.55
43741;BME280;29352;48.708;9.290;2022-11-12T07:56:40;99401.03;;;-3.46;96.30
43741;BME280;29352;48.708;9.290;2022-11-12T07:59:06;99398.19;;;-3.27;98.01
43741;BME280;29352;48.708;9.290;2022-11-12T08:01:36;99395.88;;;-3.03;97.76
43741;BME280;29352;48.708;9.290;2022-11-12T08:04:08;99395.66;;;-2.57;94.36
43741;BME280;29352;48.708;9.290;2022-11-12T08:06:36;99396.78;;;-3.33;95.49
43741;BME280;29352;48.708;9.290;2022-11-12T08:09:05;99398.09;;;-3.11;98.56
43741;BME280;29352;48.708;9.290;2022-11-12T08:11:33;99402.22;;;-2.93;97.91
43741;BME280;29352;48.708;9.290;2022-11-12T08:13:59;99399.25;;;-2.87;95.91
43741;BME280;29352;48.708;9.290;2022-11-12T08:16:25;99394.13;;;-2.47;94.62
43741;BME280;29352;48.708;9.290;2022-11-12T08:18:50;99396.47;;;-2.56;95.37
43741;BME280;29352;48.708;9.290;2022-11-12T08:21:17;99396.06;;;-3.20;95.89
43741;BME280;29352;48.708;9.290;2022-11-12T08:23:43;99394.56;;;-2.81;95.38
43741;BME280;29352;48.708;9.290;2022-11-12T08:26:12;99392.25;;;-1.91;90.98
43741;BME280;29352;48.708;9.290;2022-11-12T08:28:39;99396.53;;;-2.29;94.72
43741;BME280;29352;48.708;9.290;2022-11-12T08:31:11;99395.03;;;-2.33;93.88
43741;BME280;29352;48.708;9.290;2022-11-12T08:33:39;99397.06;;;-1.97;95.41
43741;BME280;29352;48.708;9.290;2022-11-12T08:36:07;99401.59;;;-1.86;93.93
43741;BME280;29352;48.708;9.290;2022-11-12T08:38:34;99399.41;;;-1.93;92.48
43741;BME280;29352;48.708;9.290;2022-11-12T08:41:06;99392.34;;;-1.65;91.10
43741;BME280;29352;48.708;9.290;2022-11-12T08:43:34;99396.22;;;-2.52;92.53
43741;BME280;29352;48.708;9.290;2022-11-12T08:46:01;99395.78;;;-2.04;93.37
43741;BME280;29352;48.708;9.290;2022-11-12T08:48:29;99393.53;;;-1.83;94.37
43741;BME280;29352;48.708;9.290;2022-11-12T08:50:55;99395.53;;;-1.47;92.25
43741;BME280;29352;48.708;9.290;2022-11-12T08:53:23;99412.06;;;-2.41;93.65
43741;BME280;29352;48.708;9.290;2022-11-12T08:55:53;99401.63;;;-1.47;92.34
43741;BME280;29352;48.708;9.290;2022-11-12T08:58:20;99405.59;;;-1.28;92.91
43741;BME280;29352;48.708;9.290;2022-11-12T09:00:45;99403.72;;;-1.26;92.21
43741;BME280;29352;48.708;9.290;2022-11-12T09:03:14;99403.47;;;-1.49;89.55
43741;BME280;29352;48.708;9.290;2022-11-12T09:05:42;99406.66;;;-1.44;87.98
43741;BME280;29352;48.708;9.290;2022-11-12T09:08:14;99403.19;;;-1.31;92.12
43741;BME280;29352;48.708;9.290;2022-11-12T09:10:41;99397.19;;;-0.82;90.09
43741;BME280;29352;48.708;9.290;2022-11-12T09:13:08;99391.72;;;-0.54;88.35
43741;BME280;29352;48.708;9.290;2022-11-12T09:15:34;99395.34;;;-1.06;88.57
43741;BME280;29352;48.708;9.290;2022-11-12T09:18:03;99385.63;;;-0.54;87.05
43741;BME280;29352;48.708;9.290;2022-11-12T09:20:31;99372.97;;;0.12;83.59
43741;BME280;29352;48.708;9.290;2022-11-12T09:22:58;99372.75;;;-0.70;87.36
43741;BME280;29352;48.708;9.290;2022-11-12T09:25:24;99369.88;;;-0.06;86.36
43741;BME280;29352;48.708;9.290;2022-11-12T09:27:50;99373.97;;;0.68;83.26
43741;BME280;29352;48.708;9.290;2022-11-12T09:30:15;99376.34;;;0.25;83.93
43741;BME280;29352;48.708;9.290;2022-11-12T09:32:41;99377.34;;;0.35;84.03
43741;BME280;29352;48.708;9.290;2022-11-12T09:35:06;99376.69;;;0.20;85.20
43741;BME280;29352;48.708;9.290;2022-11-12T09:37:32;99366.75;;;0.37;84.98
43741;BME280;29352;48.708;9.290;2022-11-12T09:39:57;99373.91;;;0.35;84.63
43741;BME280;29352;48.708;9.290;2022-11-12T09:42:23;99364.22;;;0.35;83.61
43741;BME280;29352;48.708;9.290;2022-11-12T09:45:06;99362.88;;;0.65;82.89
43741;BME280;29352;48.708;9.290;2022-11-12T09:47:53;99374.56;;;0.50;84.24
43741;BME280;29352;48.708;9.290;2022-11-12T09:50:25;99370.22;;;0.13;84.31
43741;BME280;29352;48.708;9.290;2022-11-12T09:53:31;99371.28;;;0.35;84.53
43741;BME280;29352;48.708;9.290;2022-11-12T09:56:11;99364.28;;;0.22;85.58
43741;BME280;29352;48.708;9.290;2022-11-12T09:58:38;99373.19;;;-0.15;86.53
43741;BME280;29352;48.708;9.290;2022-11-12T10:07:38;99365.47;;;-1.16;93.28
43741;BME280;29352;48.708;9.290;2022-11-12T10:10:29;99358.00;;;-0.47;89.29
43741;BME280;29352;48.708;9.290;2022-11-12T10:17:03;99358.44;;;0.19;85.84
43741;BME280;29352;48.708;9.290;2022-11-12T10:19:48;99357.31;;;0.45;85.43
43741;BME280;29352;48.708;9.290;2022-11-12T10:22:44;99350.31;;;0.46;84.15
43741;BME280;29352;48.708;9.290;2022-11-12T10:25:21;99343.88;;;0.61;84.54
43741;BME280;29352;48.708;9.290;2022-11-12T10:27:47;99343.53;;;1.00;82.49
43741;BME280;29352;48.708;9.290;2022-11-12T10:30:17;99344.00;;;0.93;82.86
43741;BME280;29352;48.708;9.290;2022-11-12T10:32:46;99343.66;;;1.09;83.70
43741;BME280;29352;48.708;9.290;2022-11-12T10:35:18;99333.63;;;0.92;82.24
43741;BME280;29352;48.708;9.290;2022-11-12T10:38:03;99339.00;;;1.02;82.57
43741;BME280;29352;48.708;9.290;2022-11-12T10:40:34;99332.53;;;1.06;83.42
43741;BME280;29352;48.708;9.290;2022-11-12T10:45:43;99330.88;;;0.82;83.88
43741;BME280;29352;48.708;9.290;2022-11-12T10:48:23;99328.53;;;1.45;82.19
43741;BME280;29352;48.708;9.290;2022-11-12T10:50:53;99333.19;;;1.41;80.84
43741;BME280;29352;48.708;9.290;2022-11-12T10:53:34;99323.41;;;1.32;82.67
43741;BME280;29352;48.708;9.290;2022-11-12T10:56:04;99330.09;;;1.91;80.92
43741;BME280;29352;48.708;9.290;2022-11-12T10:59:14;99328.06;;;1.83;79.81
43741;BME280;29352;48.708;9.290;2022-11-12T11:01:43;99325.41;;;2.16;80.36
43741;BME280;29352;48.708;9.290;2022-11-12T11:04:26;99329.94;;;1.49;81.62
43741;BME280;29352;48.708;9.290;2022-11-12T11:07:14;99328.19;;;2.35;79.58
43741;BME280;29352;48.708;9.290;2022-11-12T11:09:56;99314.25;;;2.44;80.16
43741;BME280;29352;48.708;9.290;2022-11-12T11:12:30;99309.00;;;2.44;79.55
43741;BME280;29352;48.708;9.290;2022-11-12T11:15:07;99310.78;;;2.44;78.11
43741;BME280;29352;48.708;9.290;2022-11-12T11:17:53;99312.88;;;2.50;78.86
43741;BME280;29352;48.708;9.290;2022-11-12T11:20:46;99294.41;;;3.61;74.96
43741;BME280;29352;48.708;9.290;2022-11-12T11:23:32;99297.63;;;3.84;75.47
43741;BME280;29352;48.708;9.290;2022-11-12T11:26:22;99302.00;;;3.25;75.86
43741;BME280;29352;48.708;9.290;2022-11-12T11:29:33;99295.78;;;2.96;77.57
43741;BME280;29352;48.708;9.290;2022-11-12T11:33:18;99294.13;;;3.54;76.14
43741;BME280;29352;48.708;9.290;2022-11-12T11:45:27;99280.72;;;4.90;69.32
43741;BME280;29352;48.708;9.290;2022-11-12T11:50:56;99265.31;;;4.19;71.78
43741;BME280;29352;48.708;9.290;2022-11-12T11:53:38;99266.41;;;4.26;69.74
43741;BME280;29352;48.708;9.290;2022-11-12T11:56:24;99260.13;;;4.84;71.12
43741;BME280;29352;48.708;9.290;2022-11-12T12:02:03;99260.81;;;4.49;70.94
43741;BME280;29352;48.708;9.290;2022-11-12T12:07:53;99262.03;;;4.92;69.37
43741;BME280;29352;48.708;9.290;2022-11-12T12:16:52;99244.56;;;5.27;68.47
43741;BME280;29352;48.708;9.290;2022-11-12T12:19:50;99247.94;;;5.01;69.20
43741;BME280;29352;48.708;9.290;2022-11-12T12:22:54;99248.38;;;4.12;71.18
43741;BME280;29352;48.708;9.290;2022-11-12T12:25:33;99251.41;;;4.27;71.44
43741;BME280;29352;48.708;9.290;2022-11-12T12:28:17;99246.69;;;5.23;69.50
43741;BME280;29352;48.708;9.290;2022-11-12T12:31:00;99238.63;;;5.42;68.60
43741;BME280;29352;48.708;9.290;2022-11-12T12:36:41;99243.13;;;4.87;70.14
43741;BME280;29352;48.708;9.290;2022-11-12T12:39:33;99237.66;;;5.16;70.23
43741;BME280;29352;48.708;9.290;2022-11-12T12:42:16;99236.78;;;5.25;68.93
43741;BME280;29352;48.708;9.290;2022-11-12T12:44:55;99231.25;;;5.18;69.20
43741;BME280;29352;48.708;9.290;2022-11-12T12:47:33;99230.88;;;4.86;70.89
43741;BME280;29352;48.708;9.290;2022-11-12T12:50:10;99225.38;;;5.25;70.78
43741;BME280;29352;48.708;9.290;2022-11-12T12:55:46;99214.00;;;5.14;71.52
43741;BME280;29352;48.708;9.290;2022-11-12T12:58:29;99214.72;;;4.89;73.26
43741;BME280;29352;48.708;9.290;2022-11-12T13:01:04;99205.03;;;5.25;71.89
43741;BME280;29352;48.708;9.290;2022-11-12T13:03:57;99198.22;;;5.40;71.29
43741;BME280;29352;48.708;9.290;2022-11-12T13:09:25;99208.44;;;5.17;70.92
43741;BME280;29352;48.708;9.290;2022-11-12T13:11:53;99206.25;;;5.49;70.39
43741;BME280;29352;48.708;9.290;2022-11-12T13:40:50;99186.19;;;5.46;70.24
43741;BME280;29352;48.708;9.290;2022-11-12T13:53:56;99194.50;;;5.15;72.35
43741;BME280;29352;48.708;9.290;2022-11-12T13:56:27;99185.88;;;5.49;71.71
43741;BME280;29352;48.708;9.290;2022-11-12T13:59:17;99170.13;;;4.94;72.02
43741;BME280;29352;48.708;9.290;2022-11-12T14:01:48;99181.78;;;5.19;71.49
43741;BME280;29352;48.708;9.290;2022-11-12T14:04:18;99177.72;;;5.42;70.96
43741;BME280;29352;48.708;9.290;2022-11-12T14:06:53;99175.06;;;5.07;71.88
43741;BME280;29352;48.708;9.290;2022-11-12T14:18:38;99171.31;;;4.82;73.00
43741;BME280;29352;48.708;9.290;2022-11-12T14:21:18;99176.44;;;4.65;74.60
43741;BME280;29352;48.708;9.290;2022-11-12T14:23:46;99167.19;;;4.79;75.08
43741;BME280;29352;48.708;9.290;2022-11-12T14:26:39;99165.19;;;4.81;74.45
43741;BME280;29352;48.708;9.290;2022-11-12T14:29:16;99164.63;;;4.22;74.82
43741;BME280;29352;48.708;9.290;2022-11-12T14:31:42;99162.84;;;4.41;75.19
43741;BME280;29352;48.708;9.290;2022-11-12T14:34:26;99160.97;;;4.23;75.93
43741;BME280;29352;48.708;9.290;2022-11-12T14:36:52;99149.75;;;4.49;76.70
43741;BME280;29352;48.708;9.290;2022-11-12T14:39:24;99150.75;;;4.48;76.00
43741;BME280;29352;48.708;9.290;2022-11-12T14:41:54;99141.56;;;4.52;74.83
43741;BME280;29352;48.708;9.290;2022-11-12T14:44:27;99148.31;;;4.64;74.90
43741;BME280;29352;48.708;9.290;2022-11-12T14:46:58;99137.50;;;4.58;74.90
43741;BME280;29352;48.708;9.290;2022-11-12T14:49:42;99141.13;;;4.47;74.07
43741;BME280;29352;48.708;9.290;2022-11-12T14:52:18;99142.31;;;4.35;74.43
43741;BME280;29352;48.708;9.290;2022-11-12T14:54:52;99142.16;;;4.36;75.03
43741;BME280;29352;48.708;9.290;2022-11-12T14:57:30;99147.06;;;4.31;75.52
43741;BME280;29352;48.708;9.290;2022-11-12T14:59:57;99144.66;;;4.10;75.37